Time;durP1;ratioP1;P1;durP2;ratioP2;P2;SDS_P1;SDS_P2;PMS_P1;PMS_P2;Temp;Humidity;BMP_temperature;BMP_pressure;BME280_temperature;BME280_humidity;BME280_pressure;Samples;Min_cycle;Max_cycle;Signal;HPM_P1;HPM_P2
2022/12/07 00:01:13;;;;;;;27.23;14.00;;;;;;;0.75;73.89;100663.94;6094841;23;20075;-72
2022/12/07 00:03:44;;;;;;;21.30;13.25;;;;;;;0.65;73.73;100654.91;6090953;23;20023;-72
2022/12/07 00:06:13;;;;;;;20.53;12.63;;;;;;;0.61;73.69;100656.91;6093589;23;20348;-71
2022/12/07 00:08:40;;;;;;;24.15;13.15;;;;;;;0.89;73.02;100655.97;6090211;23;20026;-71
2022/12/07 00:11:11;;;;;;;21.33;12.93;;;;;;;0.64;72.86;100650.56;6092463;23;20037;-71
2022/12/07 00:13:39;;;;;;;23.67;13.68;;;;;;;0.75;72.57;100653.38;6092293;23;20101;-71
2022/12/07 00:16:11;;;;;;;21.10;13.07;;;;;;;0.92;72.42;100647.00;6094287;23;20019;-72
2022/12/07 00:18:39;;;;;;;21.20;12.98;;;;;;;0.92;73.17;100647.00;6093061;23;20030;-71
2022/12/07 00:21:12;;;;;;;21.63;12.80;;;;;;;0.81;72.53;100647.69;6093803;23;20027;-71
2022/12/07 00:23:39;;;;;;;19.63;11.88;;;;;;;0.66;73.08;100646.03;6091584;23;20022;-71
2022/12/07 00:26:08;;;;;;;20.30;12.68;;;;;;;0.63;72.36;100636.50;6093668;23;20023;-70
2022/12/07 00:28:35;;;;;;;20.10;12.77;;;;;;;0.67;72.18;100645.06;6091050;23;20018;-71
2022/12/07 00:31:04;;;;;;;18.67;11.50;;;;;;;0.66;72.24;100631.03;6093283;23;20034;-73
2022/12/07 00:33:31;;;;;;;19.23;11.07;;;;;;;0.53;72.20;100635.41;6094162;23;20026;-71
2022/12/07 00:35:59;;;;;;;19.77;11.43;;;;;;;0.39;71.78;100638.06;6092980;23;20431;-71
2022/12/07 00:38:28;;;;;;;18.15;11.65;;;;;;;0.56;71.33;100631.72;6091698;23;20025;-72
2022/12/07 00:40:59;;;;;;;18.23;10.75;;;;;;;0.26;72.21;100624.78;6091156;23;20022;-71
2022/12/07 00:43:26;;;;;;;19.33;10.68;;;;;;;0.33;71.78;100626.13;6092773;23;20076;-71
2022/12/07 00:45:54;;;;;;;18.02;11.00;;;;;;;0.40;72.12;100621.28;6091217;23;20037;-71
2022/12/07 00:48:21;;;;;;;18.25;11.05;;;;;;;0.39;71.95;100625.72;6093967;23;20022;-72
2022/12/07 00:50:48;;;;;;;16.55;10.07;;;;;;;0.42;71.44;100624.69;6091058;23;20034;-71
2022/12/07 00:53:15;;;;;;;16.20;10.10;;;;;;;0.27;71.93;100618.59;6091315;23;20022;-71
2022/12/07 00:55:42;;;;;;;17.10;10.23;;;;;;;0.35;71.68;100616.31;6091891;23;20026;-71
2022/12/07 00:58:08;;;;;;;16.08;9.77;;;;;;;0.49;70.73;100612.78;6092224;23;20023;-71
2022/12/07 01:00:37;;;;;;;14.77;9.65;;;;;;;0.44;70.73;100615.72;6084819;23;20018;-71
2022/12/07 01:03:05;;;;;;;14.10;9.45;;;;;;;0.43;70.84;100607.91;6094141;23;20018;-72
2022/12/07 01:05:31;;;;;;;14.95;9.63;;;;;;;0.39;70.46;100609.03;6092643;23;20041;-71
2022/12/07 01:07:58;;;;;;;14.10;8.70;;;;;;;0.44;70.83;100610.47;6092103;23;20459;-71
2022/12/07 01:10:27;;;;;;;14.05;8.88;;;;;;;0.55;70.11;100612.41;6092996;23;20022;-73
2022/12/07 01:12:53;;;;;;;12.60;8.48;;;;;;;0.57;69.65;100610.50;6090769;23;20026;-71
2022/12/07 01:15:20;;;;;;;17.05;10.02;;;;;;;0.61;69.97;100603.25;6091202;23;20022;-72
2022/12/07 01:17:46;;;;;;;14.48;8.88;;;;;;;0.44;70.28;100597.25;6078763;23;20049;-72
2022/12/07 01:20:13;;;;;;;12.45;8.05;;;;;;;0.61;69.54;100600.63;6090833;23;20049;-72
2022/12/07 01:22:41;;;;;;;12.35;8.20;;;;;;;0.40;69.89;100603.69;6092481;23;20026;-71
2022/12/07 01:25:09;;;;;;;13.68;8.00;;;;;;;0.57;69.83;100588.53;6094033;23;20040;-71
2022/12/07 01:27:36;;;;;;;14.20;8.20;;;;;;;0.48;70.02;100596.13;6091987;23;20029;-71
2022/12/07 01:30:05;;;;;;;12.63;7.90;;;;;;;0.53;69.57;100591.38;6093515;23;20030;-71
2022/12/07 01:32:32;;;;;;;12.70;7.47;;;;;;;0.44;69.78;100588.50;6092585;23;20470;-71
2022/12/07 01:34:58;;;;;;;12.23;7.78;;;;;;;0.59;69.50;100584.84;6092286;23;20041;-71
2022/12/07 01:37:25;;;;;;;13.95;8.07;;;;;;;0.51;69.49;100577.44;6092669;23;20022;-71
2022/12/07 01:39:52;;;;;;;14.82;7.18;;;;;;;0.48;69.31;100585.56;6093406;23;20026;-71
2022/12/07 01:42:18;;;;;;;11.35;6.72;;;;;;;0.53;69.31;100580.81;6091974;23;20482;-72
2022/12/07 01:45:22;;;;;;;10.07;6.63;;;;;;;0.47;69.44;100575.94;6091848;23;20033;-71
2022/12/07 01:47:57;;;;;;;11.02;7.15;;;;;;;0.39;69.50;100578.22;6092873;23;20340;-71
2022/12/07 01:50:27;;;;;;;13.35;7.55;;;;;;;0.59;69.50;100578.72;6092594;23;20444;-72
2022/12/07 01:52:57;;;;;;;10.55;6.05;;;;;;;0.62;68.75;100575.91;6079016;23;20113;-71
2022/12/07 01:55:25;;;;;;;13.43;8.00;;;;;;;0.63;69.28;100567.03;6094372;23;20440;-72
2022/12/07 01:57:53;;;;;;;13.18;7.60;;;;;;;0.32;70.06;100557.59;6094800;23;20455;-72
2022/12/07 02:00:20;;;;;;;12.52;7.55;;;;;;;0.22;70.20;100554.69;6095197;23;20022;-71
2022/12/07 02:02:55;;;;;;;12.73;7.35;;;;;;;0.31;70.38;100556.75;6094896;23;20030;-71
2022/12/07 02:09:58;;;;;;;11.23;6.90;;;;;;;0.10;70.49;100552.84;6110982;23;20024;-72
2022/12/07 02:12:25;;;;;;;12.38;7.45;;;;;;;0.42;69.60;100554.28;6094583;23;20029;-72
2022/12/07 02:14:52;;;;;;;11.20;7.28;;;;;;;0.08;70.65;100546.81;6093690;23;20030;-73
2022/12/07 02:17:36;;;;;;;11.60;7.35;;;;;;;0.07;69.89;100547.78;6095196;23;20037;-72
2022/12/07 02:20:12;;;;;;;10.20;7.05;;;;;;;0.17;69.79;100539.19;6094801;23;20026;-72
2022/12/07 02:23:17;;;;;;;10.15;6.70;;;;;;;0.19;69.90;100544.34;6094397;23;20025;-72
2022/12/07 02:25:57;;;;;;;11.32;7.13;;;;;;;-0.07;70.42;100544.22;6118003;23;20045;-72
2022/12/07 02:28:33;;;;;;;12.00;7.57;;;;;;;-0.34;71.03;100544.13;6123820;23;20331;-72
2022/12/07 02:31:16;;;;;;;14.73;7.88;;;;;;;-0.12;71.07;100543.66;6123388;23;20074;-72
2022/12/07 02:33:57;;;;;;;13.15;7.55;;;;;;;-0.04;70.61;100536.09;6123145;23;20021;-72
2022/12/07 02:36:28;;;;;;;13.90;7.45;;;;;;;-0.12;70.78;100529.59;6111408;23;20028;-72
2022/12/07 02:39:11;;;;;;;11.93;7.45;;;;;;;-0.14;70.95;100524.44;6123235;23;20100;-73
2022/12/07 02:41:43;;;;;;;13.98;7.90;;;;;;;-0.06;71.09;100518.69;6122768;23;20028;-71
2022/12/07 02:44:16;;;;;;;10.52;7.53;;;;;;;-0.49;71.62;100519.56;6122923;23;20048;-72
2022/12/07 02:46:50;;;;;;;15.38;8.52;;;;;;;-0.24;71.64;100518.88;6117787;23;20022;-71
2022/12/07 02:49:17;;;;;;;14.75;8.40;;;;;;;-0.35;72.03;100520.50;6123979;23;20030;-70
2022/12/07 02:51:46;;;;;;;12.77;7.75;;;;;;;-0.27;71.88;100512.97;6124960;23;20026;-71
2022/12/07 02:54:15;;;;;;;14.15;8.20;;;;;;;-0.42;72.12;100515.59;6102110;23;20368;-71
2022/12/07 02:56:44;;;;;;;11.95;7.47;;;;;;;-0.34;71.84;100516.94;6118635;23;20030;-71
2022/12/07 02:59:32;;;;;;;12.70;8.13;;;;;;;-0.33;72.24;100505.44;6123685;23;20045;-72
2022/12/07 03:02:17;;;;;;;15.85;8.57;;;;;;;-0.31;72.51;100508.81;6094173;23;20022;-71
2022/12/07 03:05:08;;;;;;;15.43;8.70;;;;;;;-0.38;72.81;100504.88;6116194;23;20033;-71
2022/12/07 03:07:51;;;;;;;13.13;8.27;;;;;;;-0.39;72.52;100498.78;6122509;23;20018;-71
2022/12/07 03:10:26;;;;;;;14.63;9.05;;;;;;;-0.40;72.23;100496.22;6123472;23;20022;-71
2022/12/07 03:12:58;;;;;;;15.07;8.82;;;;;;;-0.26;72.23;100489.16;6123889;23;20030;-71
2022/12/07 03:15:52;;;;;;;16.05;8.93;;;;;;;-0.13;72.12;100477.81;6124229;23;20029;-72
2022/12/07 03:18:22;;;;;;;17.48;9.32;;;;;;;-0.51;72.94;100478.44;6123521;23;20026;-71
2022/12/07 03:20:53;;;;;;;17.95;8.93;;;;;;;-0.50;73.62;100473.09;6123698;23;20026;-71
2022/12/07 03:23:23;;;;;;;13.93;9.57;;;;;;;-0.26;72.53;100472.47;6123738;23;20507;-72
2022/12/07 03:26:00;;;;;;;14.20;8.70;;;;;;;-0.55;72.91;100474.28;6122346;23;20467;-70
2022/12/07 03:28:32;;;;;;;16.02;9.98;;;;;;;-0.56;73.46;100465.56;6123859;23;20026;-72
2022/12/07 03:31:14;;;;;;;14.43;9.02;;;;;;;-0.63;73.24;100458.97;6123177;23;20511;-71
2022/12/07 03:34:02;;;;;;;15.93;9.63;;;;;;;-0.70;73.95;100453.22;6122788;23;20022;-71
2022/12/07 03:36:36;;;;;;;14.13;9.07;;;;;;;-0.82;74.40;100453.13;6114278;23;20026;-73
2022/12/07 03:39:22;;;;;;;16.00;9.80;;;;;;;-0.90;74.86;100451.81;6123396;23;20363;-71
2022/12/07 03:41:49;;;;;;;15.23;9.50;;;;;;;-0.99;75.35;100444.50;6123363;23;20018;-71
2022/12/07 03:44:17;;;;;;;15.57;9.57;;;;;;;-0.67;74.55;100433.75;6123389;23;20022;-71
2022/12/07 03:47:02;;;;;;;19.20;10.60;;;;;;;-0.77;74.84;100430.00;6123183;23;20026;-71
2022/12/07 03:49:33;;;;;;;18.80;10.98;;;;;;;-0.51;74.09;100438.91;6122181;23;20050;-71
2022/12/07 03:52:12;;;;;;;25.27;12.00;;;;;;;-0.63;74.27;100422.09;6123375;23;20026;-72
2022/12/07 03:54:41;;;;;;;21.80;11.38;;;;;;;-0.69;74.45;100418.03;6122449;23;20335;-72
2022/12/07 03:57:10;;;;;;;20.52;11.48;;;;;;;-0.81;74.63;100415.34;6122184;23;20045;-72
2022/12/07 03:59:38;;;;;;;22.40;12.80;;;;;;;-0.77;75.08;100407.13;6123065;23;20022;-73
2022/12/07 04:02:07;;;;;;;20.73;11.48;;;;;;;-0.73;75.43;100413.06;6088189;23;20057;-71
2022/12/07 04:04:34;;;;;;;21.45;12.70;;;;;;;-0.61;74.79;100408.81;6093976;23;20028;-71
2022/12/07 04:07:01;;;;;;;22.98;13.18;;;;;;;-0.74;75.21;100411.38;6094200;23;20026;-71
2022/12/07 04:09:27;;;;;;;23.83;12.98;;;;;;;-0.75;75.46;100412.28;6094103;23;20029;-71
2022/12/07 04:11:54;;;;;;;24.27;13.23;;;;;;;-0.76;75.76;100407.97;6092863;23;20022;-71
2022/12/07 04:14:20;;;;;;;27.20;14.15;;;;;;;-0.76;75.65;100400.91;6088555;23;20032;-70
2022/12/07 04:16:49;;;;;;;25.75;13.85;;;;;;;-0.66;75.33;100398.56;6094009;23;20346;-70
2022/12/07 04:19:17;;;;;;;26.17;14.60;;;;;;;-0.82;75.81;100397.81;6121612;23;20056;-71
2022/12/07 04:21:44;;;;;;;27.42;14.75;;;;;;;-0.80;75.86;100393.31;6123642;23;20026;-70
2022/12/07 04:24:12;;;;;;;26.52;14.55;;;;;;;-0.58;75.59;100388.38;6123168;23;20022;-70
2022/12/07 04:26:39;;;;;;;30.80;16.98;;;;;;;-0.90;76.25;100383.34;6121159;23;20034;-71
2022/12/07 04:29:05;;;;;;;30.63;16.90;;;;;;;-0.86;76.79;100384.00;6122216;23;20029;-70
2022/12/07 04:31:34;;;;;;;30.58;17.15;;;;;;;-0.76;76.69;100377.22;6120938;23;20445;-70
2022/12/07 04:34:00;;;;;;;29.02;16.38;;;;;;;-0.87;76.98;100390.22;6122095;23;20041;-69
2022/12/07 04:36:27;;;;;;;33.40;17.52;;;;;;;-0.96;77.07;100378.44;6122573;23;20009;-70
2022/12/07 04:38:54;;;;;;;36.92;18.42;;;;;;;-0.88;77.05;100371.84;6121901;23;20100;-72
2022/12/07 04:41:26;;;;;;;36.17;18.98;;;;;;;-0.88;77.30;100361.31;6122564;23;20028;-70
2022/12/07 04:44:01;;;;;;;37.97;19.48;;;;;;;-0.82;77.24;100363.56;6121962;23;20021;-71
2022/12/07 04:46:30;;;;;;;39.63;19.65;;;;;;;-0.75;77.37;100364.88;6123023;23;20455;-71
2022/12/07 04:48:57;;;;;;;40.33;20.90;;;;;;;-0.79;77.55;100363.38;6121932;23;20358;-69
2022/12/07 04:51:27;;;;;;;40.60;20.48;;;;;;;-0.69;77.64;100353.97;6122236;23;20354;-70
2022/12/07 04:53:55;;;;;;;44.47;22.08;;;;;;;-0.75;77.00;100351.72;6122693;23;20026;-70
2022/12/07 04:56:23;;;;;;;43.63;22.52;;;;;;;-0.85;77.72;100355.88;6122057;23;20071;-70
2022/12/07 04:58:52;;;;;;;47.47;23.10;;;;;;;-0.68;77.65;100358.28;6121765;23;20459;-69
2022/12/07 05:01:19;;;;;;;43.00;22.10;;;;;;;-0.77;77.86;100350.97;6123422;23;20018;-70
2022/12/07 05:03:45;;;;;;;48.13;24.00;;;;;;;-0.57;77.88;100349.69;6093562;23;20022;-70
2022/12/07 05:06:13;;;;;;;49.10;22.85;;;;;;;-0.49;77.53;100350.91;6093478;23;20037;-70
2022/12/07 05:08:40;;;;;;;44.65;23.65;;;;;;;-0.21;76.33;100354.41;6093572;23;20057;-70
2022/12/07 05:11:08;;;;;;;50.45;23.90;;;;;;;-0.37;76.79;100348.44;6093549;23;20032;-70
2022/12/07 05:13:35;;;;;;;55.05;24.05;;;;;;;-0.52;77.51;100351.09;6092794;23;20029;-70
2022/12/07 05:16:02;;;;;;;50.92;23.83;;;;;;;-0.36;77.34;100358.88;6091862;23;20022;-70
2022/12/07 05:18:29;;;;;;;44.58;23.70;;;;;;;-0.44;77.23;100343.53;6092870;23;20026;-70
2022/12/07 05:20:55;;;;;;;47.72;23.75;;;;;;;-0.58;77.81;100340.94;6093380;23;20022;-70
2022/12/07 05:23:22;;;;;;;50.22;24.73;;;;;;;-0.44;77.86;100338.28;6093124;23;20045;-70
2022/12/07 05:25:48;;;;;;;57.60;25.48;;;;;;;-0.31;77.89;100335.69;6092698;23;20494;-70
2022/12/07 05:28:15;;;;;;;53.45;25.90;;;;;;;-0.26;77.78;100338.03;6122640;23;20098;-70
2022/12/07 05:30:41;;;;;;;48.85;25.77;;;;;;;-0.22;77.84;100334.28;6121623;23;20040;-70
2022/12/07 05:33:08;;;;;;;57.25;25.63;;;;;;;-0.24;77.64;100330.88;6123157;23;20355;-70
2022/12/07 05:35:35;;;;;;;51.67;27.15;;;;;;;-0.15;77.87;100332.91;6121663;23;20028;-70
2022/12/07 05:38:01;;;;;;;52.05;26.02;;;;;;;-0.05;77.41;100334.00;6121635;23;20061;-70
2022/12/07 05:40:28;;;;;;;53.13;25.45;;;;;;;-0.20;77.88;100324.44;6122263;23;20022;-70
2022/12/07 05:42:54;;;;;;;59.58;25.95;;;;;;;-0.11;78.03;100325.66;6122765;23;20026;-70
2022/12/07 05:45:28;;;;;;;54.38;26.17;;;;;;;0.00;77.65;100326.63;6122538;23;20021;-70
2022/12/07 05:47:54;;;;;;;53.88;27.65;;;;;;;-0.13;78.08;100325.72;6122319;23;20042;-71
2022/12/07 05:50:21;;;;;;;58.05;26.55;;;;;;;-0.13;77.94;100319.63;6122347;23;20022;-69
2022/12/07 05:52:47;;;;;;;65.43;29.00;;;;;;;-0.05;78.34;100320.81;6122420;23;20036;-70
2022/12/07 05:55:14;;;;;;;65.97;28.08;;;;;;;-0.09;78.89;100316.66;6121958;23;20029;-70
2022/12/07 05:59:22;;;;;;;64.13;29.55;;;;;;;-0.03;78.50;100308.34;6121857;23;20034;-70
2022/12/07 06:00:27;;;;;;;67.10;29.45;;;;;;;0.15;77.99;100308.06;6122313;23;20351;-70
2022/12/07 06:02:53;;;;;;;72.45;29.95;;;;;;;0.21;77.92;100303.22;6122060;23;20477;-70
2022/12/07 06:05:20;;;;;;;68.07;29.60;;;;;;;0.07;78.02;100299.84;6121734;23;20022;-71
2022/12/07 06:07:46;;;;;;;67.63;29.65;;;;;;;0.01;78.64;100301.09;6104325;23;20325;-70
2022/12/07 06:10:13;;;;;;;65.68;29.75;;;;;;;0.27;78.44;100292.25;6121996;23;20018;-70
2022/12/07 06:12:42;;;;;;;62.80;30.25;;;;;;;0.03;78.74;100294.78;6121156;23;20025;-71
2022/12/07 06:15:10;;;;;;;64.25;30.00;;;;;;;0.14;78.67;100288.75;6116180;23;20089;-72
2022/12/07 06:17:36;;;;;;;70.90;31.58;;;;;;;0.07;78.69;100284.84;6121280;23;20105;-71
2022/12/07 06:20:03;;;;;;;74.47;32.05;;;;;;;0.28;78.55;100286.03;6120508;23;20497;-70
2022/12/07 06:22:30;;;;;;;70.18;30.50;;;;;;;0.11;79.08;100283.69;6125761;23;20402;-70
2022/12/07 06:24:57;;;;;;;64.78;29.60;;;;;;;0.11;78.97;100280.22;6122055;23;20079;-69
2022/12/07 06:27:23;;;;;;;66.85;28.52;;;;;;;-0.16;79.77;100275.84;6121347;23;20022;-70
2022/12/07 06:29:50;;;;;;;61.97;30.13;;;;;;;0.12;79.54;100281.91;6122112;23;20110;-71
2022/12/07 06:32:16;;;;;;;61.53;29.70;;;;;;;-0.07;79.65;100272.59;6121580;23;20033;-71
2022/12/07 06:34:43;;;;;;;61.58;28.05;;;;;;;0.11;79.35;100269.66;6122602;23;20029;-71
2022/12/07 06:37:09;;;;;;;69.25;30.15;;;;;;;0.05;78.98;100279.69;6121496;23;20105;-71
2022/12/07 06:39:36;;;;;;;64.78;31.48;;;;;;;0.15;79.63;100273.78;6121623;23;20041;-71
2022/12/07 06:42:02;;;;;;;65.28;30.10;;;;;;;0.04;79.88;100275.34;6123074;23;20022;-69
2022/12/07 06:44:29;;;;;;;65.25;31.02;;;;;;;0.10;79.70;100274.09;6124438;23;20021;-70
2022/12/07 06:46:56;;;;;;;69.70;32.15;;;;;;;0.25;79.44;100272.22;6123068;23;20479;-70
2022/12/07 06:49:42;;;;;;;65.82;31.35;;;;;;;0.28;79.60;100278.13;6123424;23;20026;-70
2022/12/07 06:52:09;;;;;;;73.38;32.25;;;;;;;0.36;79.00;100277.59;6123078;23;20014;-70
2022/12/07 06:54:35;;;;;;;74.97;33.53;;;;;;;0.37;79.62;100276.66;6123628;23;20395;-70
2022/12/07 06:57:02;;;;;;;76.28;32.03;;;;;;;0.39;79.67;100268.63;6120518;23;20018;-69
2022/12/07 06:59:28;;;;;;;66.43;30.95;;;;;;;0.48;79.32;100270.63;6123142;23;20022;-70
2022/12/07 07:01:55;;;;;;;78.32;33.83;;;;;;;0.61;78.41;100258.28;6123628;23;20021;-71
2022/12/07 07:04:21;;;;;;;72.00;32.75;;;;;;;0.73;78.94;100269.75;6122894;23;20026;-71
2022/12/07 07:06:48;;;;;;;72.03;33.20;;;;;;;0.63;79.10;100271.34;6123218;23;20037;-71
2022/12/07 07:09:14;;;;;;;71.72;31.63;;;;;;;0.77;78.92;100265.94;6124246;23;20022;-71
2022/12/07 07:11:41;;;;;;;69.65;32.03;;;;;;;0.65;78.77;100274.75;6122916;23;20407;-71
2022/12/07 07:14:07;;;;;;;72.15;31.33;;;;;;;0.58;79.23;100262.94;6123812;23;20046;-71
2022/12/07 07:16:34;;;;;;;62.35;29.90;;;;;;;0.54;79.11;100272.84;6123986;23;20044;-72
2022/12/07 07:19:00;;;;;;;63.65;28.98;;;;;;;0.65;79.22;100274.75;6124308;23;20021;-70
2022/12/07 07:21:27;;;;;;;59.67;28.60;;;;;;;0.65;79.25;100280.03;6122969;23;20026;-75
2022/12/07 07:23:54;;;;;;;63.40;29.38;;;;;;;0.87;78.28;100282.81;6124166;23;20022;-74
2022/12/07 07:26:20;;;;;;;60.88;28.92;;;;;;;0.84;78.28;100276.91;6121281;23;20104;-75
2022/12/07 07:28:49;;;;;;;57.70;27.85;;;;;;;0.95;78.27;100280.50;6075241;23;20110;-74
2022/12/07 07:31:17;;;;;;;50.50;26.00;;;;;;;0.83;78.15;100275.25;6121871;23;20050;-75
2022/12/07 07:33:46;;;;;;;52.22;26.83;;;;;;;0.87;77.86;100285.47;6109768;23;20026;-74
2022/12/07 07:36:13;;;;;;;59.58;26.80;;;;;;;1.05;77.87;100287.75;6095057;23;20018;-74
2022/12/07 07:38:43;;;;;;;55.53;26.98;;;;;;;0.75;78.62;100268.72;6122727;23;20022;-75
2022/12/07 07:41:10;;;;;;;55.50;25.23;;;;;;;0.77;78.18;100264.13;6119941;23;20105;-75
2022/12/07 07:43:36;;;;;;;56.53;25.25;;;;;;;0.65;78.28;100275.59;6120118;23;20021;-75
2022/12/07 07:46:13;;;;;;;49.88;25.48;;;;;;;0.71;78.09;100280.44;6120787;23;20022;-74
2022/12/07 07:48:51;;;;;;;54.03;25.67;;;;;;;0.84;78.05;100283.03;6101816;23;20056;-75
2022/12/07 07:51:34;;;;;;;44.95;22.05;;;;;;;0.60;78.04;100282.97;6074546;23;20359;-75
2022/12/07 07:54:01;;;;;;;41.03;20.75;;;;;;;0.71;77.79;100275.16;6115561;23;20057;-75
2022/12/07 07:56:39;;;;;;;44.75;20.00;;;;;;;0.81;77.36;100272.69;6092604;23;20018;-76
2022/12/07 07:59:06;;;;;;;43.92;20.20;;;;;;;0.77;76.47;100276.50;6111822;23;20018;-75
2022/12/07 08:01:33;;;;;;;40.42;18.50;;;;;;;0.76;77.31;100283.59;6122273;23;20362;-74
2022/12/07 08:04:00;;;;;;;43.67;19.88;;;;;;;0.80;76.53;100283.38;6096681;23;20499;-74
2022/12/07 08:06:26;;;;;;;37.58;17.65;;;;;;;0.83;76.63;100285.81;6121150;23;20118;-75
2022/12/07 08:08:58;;;;;;;37.65;19.77;;;;;;;0.85;76.72;100286.53;6122221;23;20018;-74
2022/12/07 08:11:30;;;;;;;36.38;17.98;;;;;;;0.72;77.07;100278.63;6120348;23;20033;-74
2022/12/07 08:14:00;;;;;;;28.50;15.95;;;;;;;1.12;75.83;100296.94;6115624;23;20032;-74
2022/12/07 08:16:27;;;;;;;30.35;16.10;;;;;;;0.84;76.72;100280.41;6120475;23;20053;-75
2022/12/07 08:18:54;;;;;;;27.27;14.75;;;;;;;1.00;76.37;100288.09;6121513;23;20072;-75
2022/12/07 08:21:21;;;;;;;26.70;13.50;;;;;;;0.79;76.32;100290.47;6120198;23;20022;-74
2022/12/07 08:23:47;;;;;;;22.40;12.20;;;;;;;0.93;75.98;100290.31;6120404;23;20060;-74
2022/12/07 08:26:16;;;;;;;21.30;11.82;;;;;;;1.16;75.19;100288.69;6095635;23;20018;-74
2022/12/07 08:28:44;;;;;;;17.80;10.05;;;;;;;0.89;74.73;100288.84;6106674;23;20032;-74
2022/12/07 08:31:15;;;;;;;11.85;7.18;;;;;;;0.78;74.25;100288.78;6119701;23;20032;-75
2022/12/07 08:33:44;;;;;;;14.63;5.95;;;;;;;0.85;73.58;100294.44;6099296;23;20121;-74
2022/12/07 08:36:12;;;;;;;10.90;5.38;;;;;;;0.96;72.78;100291.91;6090094;23;20022;-74
2022/12/07 08:38:41;;;;;;;8.30;3.60;;;;;;;0.85;70.59;100297.09;6093368;23;20452;-74
2022/12/07 08:41:21;;;;;;;8.30;3.97;;;;;;;1.10;70.46;100306.78;6092009;23;20079;-75
2022/12/07 08:43:57;;;;;;;8.63;4.03;;;;;;;1.24;70.95;100306.63;6092033;23;20069;-74
2022/12/07 08:46:46;;;;;;;7.18;3.95;;;;;;;1.06;71.07;100306.16;6090784;23;20347;-74
2022/12/07 08:49:36;;;;;;;7.82;4.57;;;;;;;1.03;71.54;100306.38;6077501;23;20356;-75
2022/12/07 08:52:10;;;;;;;9.85;4.57;;;;;;;1.24;70.67;100317.19;6105364;23;20046;-74
2022/12/07 08:54:39;;;;;;;6.10;4.03;;;;;;;0.94;71.97;100317.56;6118966;23;20336;-75
2022/12/07 08:57:07;;;;;;;5.72;3.63;;;;;;;0.92;71.27;100328.25;6120955;23;20077;-75
2022/12/07 08:59:36;;;;;;;7.90;4.20;;;;;;;1.11;69.76;100313.75;6109423;23;20018;-72
2022/12/07 09:02:04;;;;;;;5.85;3.92;;;;;;;1.18;69.76;100317.63;6094331;23;20078;-75
2022/12/07 09:04:33;;;;;;;11.57;4.20;;;;;;;1.32;70.43;100322.75;6046084;23;20030;-75
2022/12/07 09:07:12;;;;;;;10.02;3.72;;;;;;;1.19;69.78;100328.06;6058737;23;20019;-75
2022/12/07 09:09:53;;;;;;;7.07;3.78;;;;;;;1.35;69.69;100327.00;6067837;23;20034;-75
2022/12/07 09:12:20;;;;;;;10.65;4.10;;;;;;;1.25;69.42;100332.09;6052555;23;20029;-75
2022/12/07 09:15:00;;;;;;;;;;;;;;;;;;;;;
2022/12/07 09:17:36;;;;;;;5.43;2.85;;;;;;;1.27;69.19;100324.06;6058983;23;20030;-75
2022/12/07 09:20:05;;;;;;;6.32;2.88;;;;;;;1.32;68.32;100332.50;6049454;23;20027;-75
2022/12/07 09:22:32;;;;;;;5.10;2.35;;;;;;;1.29;67.90;100335.34;6061343;23;20022;-74
2022/12/07 09:25:19;;;;;;;5.32;3.20;;;;;;;1.15;68.55;100341.63;6047919;23;20824;-75
2022/12/07 09:28:10;;;;;;;6.00;2.88;;;;;;;1.51;67.55;100337.28;6060244;23;20086;-75
2022/12/07 09:30:56;;;;;;;6.13;2.47;;;;;;;1.63;66.88;100342.53;6041773;23;20027;-74
2022/12/07 09:33:55;;;;;;;6.18;2.03;;;;;;;1.17;66.68;100329.16;6064215;23;20360;-74
2022/12/07 09:36:33;;;;;;;5.65;2.33;;;;;;;1.10;66.81;100341.13;6035771;23;20122;-75
2022/12/07 09:39:04;;;;;;;5.63;2.42;;;;;;;1.04;66.71;100339.75;6033906;23;20102;-74
2022/12/07 09:41:32;;;;;;;6.18;2.80;;;;;;;0.81;66.72;100337.88;6060758;23;20363;-74
2022/12/07 09:44:12;;;;;;;8.45;2.17;;;;;;;1.08;65.57;100345.66;6061523;23;20018;-75
2022/12/07 09:46:41;;;;;;;7.75;2.40;;;;;;;1.20;65.77;100364.13;6091424;23;20032;-74
2022/12/07 09:49:17;;;;;;;3.60;2.03;;;;;;;1.09;65.47;100363.19;6091257;23;20070;-74
2022/12/07 09:51:45;;;;;;;3.80;2.40;;;;;;;1.10;65.44;100364.91;6092187;23;20089;-75
2022/12/07 09:54:14;;;;;;;4.10;2.40;;;;;;;1.12;65.48;100352.41;6082385;23;20106;-74
2022/12/07 09:56:51;;;;;;;3.15;2.35;;;;;;;1.28;65.86;100358.31;6082123;23;20022;-74
2022/12/07 09:59:18;;;;;;;5.90;2.00;;;;;;;0.98;66.36;100353.38;6079182;23;20459;-75
2022/12/07 10:01:51;;;;;;;6.78;3.17;;;;;;;0.92;65.28;100361.75;6089300;23;20029;-75
2022/12/07 10:04:26;;;;;;;5.07;2.13;;;;;;;1.22;65.11;100366.66;6089469;23;20017;-75
2022/12/07 10:06:53;;;;;;;7.22;2.33;;;;;;;1.07;65.13;100363.31;6120686;23;20507;-75
2022/12/07 10:09:21;;;;;;;2.42;1.80;;;;;;;0.95;66.00;100362.38;6119997;23;20022;-74
2022/12/07 10:12:18;;;;;;;4.72;2.08;;;;;;;0.84;66.85;100359.63;6106302;23;20026;-75
2022/12/07 10:14:58;;;;;;;4.28;2.20;;;;;;;1.04;67.19;100362.69;6103054;23;20104;-74
2022/12/07 10:17:49;;;;;;;7.07;3.28;;;;;;;1.26;65.98;100354.91;6122273;23;20022;-75
2022/12/07 10:20:29;;;;;;;3.72;2.17;;;;;;;0.96;65.55;100357.94;6118909;23;20029;-75
2022/12/07 10:23:13;;;;;;;3.63;1.95;;;;;;;1.15;65.88;100360.13;6113916;23;20025;-74
2022/12/07 10:25:42;;;;;;;5.85;2.13;;;;;;;1.06;65.50;100358.13;6122510;23;20046;-75
2022/12/07 10:28:12;;;;;;;8.52;2.88;;;;;;;0.98;65.86;100369.22;6123904;23;20076;-75
2022/12/07 10:30:47;;;;;;;4.43;2.85;;;;;;;1.09;65.58;100363.19;6092968;23;20023;-75
2022/12/07 10:33:53;;;;;;;3.92;2.28;;;;;;;1.41;65.84;100355.63;6091236;23;20022;-75
2022/12/07 10:36:39;;;;;;;3.28;2.47;;;;;;;1.32;65.40;100354.47;6078401;23;20018;-75
2022/12/07 10:39:30;;;;;;;5.43;2.75;;;;;;;1.42;66.14;100352.03;6102802;23;20021;-75
2022/12/07 10:42:29;;;;;;;5.25;2.63;;;;;;;1.21;66.18;100347.31;6044822;23;20069;-75
2022/12/07 10:45:25;;;;;;;;;;;;;;;1.55;66.51;100349.34;6113260;23;20049;-76
2022/12/07 10:48:01;;;;;;;4.40;2.85;;;;;;;1.73;65.17;100342.72;6110452;23;19917;-76
2022/12/07 10:51:08;;;;;;;3.83;2.60;;;;;;;1.66;66.16;100347.59;6120949;23;20021;-75
2022/12/07 10:54:18;;;;;;;4.47;3.15;;;;;;;1.60;66.08;100347.19;6108546;23;20027;-75
2022/12/07 10:57:03;;;;;;;11.60;3.83;;;;;;;1.49;66.50;100346.19;6114721;23;20021;-74
2022/12/07 10:59:42;;;;;;;7.15;4.20;;;;;;;1.29;67.49;100338.00;6071266;23;20014;-75
2022/12/07 11:02:27;;;;;;;4.68;3.25;;;;;;;1.39;67.09;100339.03;6057329;23;20406;-75
2022/12/07 11:05:15;;;;;;;8.65;3.10;;;;;;;1.92;66.12;100342.19;6097552;23;20025;-75
2022/12/07 11:08:21;;;;;;;7.03;3.30;;;;;;;1.75;66.37;100340.81;6122534;23;20097;-76
2022/12/07 11:11:20;;;;;;;8.00;3.22;;;;;;;1.67;67.15;100337.88;6108093;23;20033;-75
2022/12/07 11:14:00;;;;;;;;;;;;;;;1.54;66.98;100342.34;6114889;23;20022;-74
2022/12/07 11:17:04;;;;;;;9.00;3.65;;;;;;;1.83;66.63;100335.78;6116911;23;19987;-75
2022/12/07 11:19:51;;;;;;;13.95;3.78;;;;;;;2.03;66.55;100344.09;6114064;23;20351;-75
2022/12/07 11:22:34;;;;;;;7.95;3.70;;;;;;;1.82;66.99;100336.75;6113095;23;20025;-75
2022/12/07 11:25:31;;;;;;;8.63;4.82;;;;;;;2.07;66.34;100329.66;6122601;23;20093;-75
2022/12/07 11:28:04;;;;;;;6.93;3.60;;;;;;;1.92;67.09;100337.81;6066881;23;20053;-75
2022/12/07 11:30:49;;;;;;;6.50;4.13;;;;;;;1.82;67.55;100331.47;6080631;23;20110;-74
2022/12/07 11:33:34;;;;;;;7.55;4.07;;;;;;;1.87;67.18;100326.66;6061075;23;20019;-75
2022/12/07 11:36:01;;;;;;;9.13;3.88;;;;;;;1.88;66.71;100325.69;6093039;23;20101;-76
2022/12/07 11:38:52;;;;;;;10.50;4.18;;;;;;;1.68;67.71;100326.31;6092210;23;20329;-75
2022/12/07 11:41:26;;;;;;;8.43;3.47;;;;;;;1.62;67.86;100324.16;6111729;23;20102;-75
2022/12/07 11:43:59;;;;;;;6.63;3.50;;;;;;;1.63;66.93;100313.44;6120199;23;20072;-76
2022/12/07 11:46:35;;;;;;;9.02;3.63;;;;;;;1.76;67.37;100321.34;6121753;23;20354;-75
2022/12/07 11:49:10;;;;;;;12.50;3.55;;;;;;;1.78;67.24;100324.69;6121218;23;20026;-75
2022/12/07 11:51:40;;;;;;;7.45;3.03;;;;;;;2.19;66.20;100315.50;6119113;23;20018;-75